Time;durP1;ratioP1;P1;durP2;ratioP2;P2;SDS_P1;SDS_P2;PMS_P1;PMS_P2;Temp;Humidity;BMP_temperature;BMP_pressure;BME280_temperature;BME280_humidity;BME280_pressure;Samples;Min_cycle;Max_cycle;Signal;HPM_P1;HPM_P2
2021/11/24 00:01:18;;;;;;;;;;;23.30;54.40;;;;;;1523301;77;799;-63
2021/11/24 00:03:20;;;;;;;;;;;23.40;54.40;;;;;;1524799;77;758;-65
2021/11/24 00:05:22;;;;;;;;;;;23.40;54.30;;;;;;1523228;77;794;-63
2021/11/24 00:07:24;;;;;;;;;;;23.40;54.30;;;;;;1524445;77;876;-63
2021/11/24 00:09:26;;;;;;;;;;;23.40;54.20;;;;;;1524478;77;1940;-63
2021/11/24 00:11:28;;;;;;;;;;;23.40;54.20;;;;;;1523950;78;774;-63
2021/11/24 00:13:30;;;;;;;;;;;23.40;54.20;;;;;;1522297;77;786;-61
2021/11/24 00:15:32;;;;;;;;;;;23.30;54.20;;;;;;1524267;77;758;-65
2021/11/24 00:17:34;;;;;;;;;;;23.40;54.20;;;;;;1521350;77;715;-64
2021/11/24 00:19:36;;;;;;;;;;;23.40;54.20;;;;;;1524499;77;1140;-65
2021/11/24 00:21:38;;;;;;;;;;;23.30;54.20;;;;;;1524537;77;762;-63
2021/11/24 00:23:40;;;;;;;;;;;23.40;54.10;;;;;;1522736;77;801;-64
2021/11/24 00:25:41;;;;;;;;;;;23.30;54.20;;;;;;1524325;77;898;-63
2021/11/24 00:27:43;;;;;;;;;;;23.30;54.20;;;;;;1520463;77;939;-64
2021/11/24 00:29:45;;;;;;;;;;;23.40;54.20;;;;;;1522673;77;1920;-63
2021/11/24 00:31:47;;;;;;;;;;;23.30;54.20;;;;;;1523285;77;799;-63
2021/11/24 00:33:49;;;;;;;;;;;23.40;54.20;;;;;;1524985;77;788;-64
2021/11/24 00:35:51;;;;;;;;;;;23.40;54.30;;;;;;1524052;77;801;-65
2021/11/24 00:37:53;;;;;;;;;;;23.30;54.30;;;;;;1524210;77;772;-65
2021/11/24 00:39:55;;;;;;;;;;;23.30;54.30;;;;;;1523956;77;1142;-63
2021/11/24 00:41:57;;;;;;;;;;;23.30;54.30;;;;;;1524521;77;784;-63
2021/11/24 00:43:59;;;;;;;;;;;23.30;54.40;;;;;;1524616;77;767;-64
2021/11/24 00:46:00;;;;;;;;;;;23.30;54.40;;;;;;1524611;77;774;-63
2021/11/24 00:48:03;;;;;;;;;;;23.30;54.40;;;;;;1524177;77;723;-65
2021/11/24 00:50:05;;;;;;;;;;;23.30;54.50;;;;;;1524278;77;1932;-63
2021/11/24 00:52:07;;;;;;;;;;;23.40;54.60;;;;;;1517697;78;913;-63
2021/11/24 00:54:09;;;;;;;;;;;23.30;54.70;;;;;;1523170;78;717;-61
2021/11/24 00:56:11;;;;;;;;;;;23.30;54.70;;;;;;1513629;78;714;-64
2021/11/24 00:58:13;;;;;;;;;;;23.40;54.80;;;;;;1522500;77;765;-64
2021/11/24 01:00:16;;;;;;;;;;;23.30;54.80;;;;;;1522335;77;1122;-62
2021/11/24 01:02:18;;;;;;;;;;;23.30;54.80;;;;;;1524436;78;727;-63
2021/11/24 01:04:20;;;;;;;;;;;23.30;54.70;;;;;;1521921;77;675;-64
2021/11/24 01:06:22;;;;;;;;;;;23.40;54.70;;;;;;1520410;78;748;-63
2021/11/24 01:08:24;;;;;;;;;;;23.30;54.70;;;;;;1521982;77;753;-64
2021/11/24 01:10:26;;;;;;;;;;;23.40;54.70;;;;;;1520834;77;1946;-63
2021/11/24 01:12:28;;;;;;;;;;;23.30;54.70;;;;;;1514271;78;769;-63
2021/11/24 01:14:30;;;;;;;;;;;23.30;54.80;;;;;;1522459;78;785;-63
2021/11/24 01:16:32;;;;;;;;;;;23.30;54.70;;;;;;1525479;78;742;-60
2021/11/24 01:18:34;;;;;;;;;;;23.40;54.70;;;;;;1512826;78;735;-64
2021/11/24 01:20:35;;;;;;;;;;;23.30;54.70;;;;;;1523324;78;1104;-64
2021/11/24 01:22:37;;;;;;;;;;;23.30;54.70;;;;;;1520757;77;771;-63
2021/11/24 01:24:40;;;;;;;;;;;23.30;54.70;;;;;;1522242;78;783;-64
2021/11/24 01:26:44;;;;;;;;;;;23.30;54.50;;;;;;1522251;78;785;-64
2021/11/24 01:28:46;;;;;;;;;;;23.40;54.60;;;;;;1522505;77;736;-63
2021/11/24 01:30:48;;;;;;;;;;;23.30;54.60;;;;;;1523736;78;1952;-62
2021/11/24 01:32:50;;;;;;;;;;;23.40;54.70;;;;;;1524601;78;736;-63
2021/11/24 01:34:51;;;;;;;;;;;23.30;54.70;;;;;;1520978;77;798;-62
2021/11/24 01:36:53;;;;;;;;;;;23.40;54.60;;;;;;1524881;78;691;-63
2021/11/24 01:38:55;;;;;;;;;;;23.30;54.70;;;;;;1521246;77;1134;-63
2021/11/24 01:40:57;;;;;;;;;;;23.40;54.50;;;;;;1521109;78;719;-64
2021/11/24 01:42:59;;;;;;;;;;;23.30;54.60;;;;;;1515181;77;800;-65
2021/11/24 01:45:01;;;;;;;;;;;23.30;54.50;;;;;;1523710;77;808;-63
2021/11/24 01:47:03;;;;;;;;;;;23.40;54.40;;;;;;1512496;78;695;-62
2021/11/24 01:49:05;;;;;;;;;;;23.30;54.40;;;;;;1512135;77;1133;-63
2021/11/24 01:51:07;;;;;;;;;;;23.30;54.40;;;;;;1513569;78;751;-63
2021/11/24 01:53:09;;;;;;;;;;;23.30;54.40;;;;;;1522399;77;840;-63
2021/11/24 01:55:11;;;;;;;;;;;23.30;54.40;;;;;;1523287;78;708;-64
2021/11/24 01:57:14;;;;;;;;;;;23.40;54.40;;;;;;1524913;78;808;-64
2021/11/24 01:59:16;;;;;;;;;;;23.30;54.40;;;;;;1517257;77;1230;-64
2021/11/24 02:01:18;;;;;;;;;;;23.30;54.40;;;;;;1522486;77;777;-66
2021/11/24 02:03:20;;;;;;;;;;;23.30;54.40;;;;;;1520845;78;706;-63
2021/11/24 02:05:22;;;;;;;;;;;23.30;54.50;;;;;;1522058;78;911;-63
2021/11/24 02:07:24;;;;;;;;;;;23.40;54.50;;;;;;1512229;78;776;-63
2021/11/24 02:09:25;;;;;;;;;;;23.30;54.40;;;;;;1522371;78;1957;-63
2021/11/24 02:11:27;;;;;;;;;;;23.30;54.40;;;;;;1522145;78;699;-63
2021/11/24 02:13:29;;;;;;;;;;;23.30;54.40;;;;;;1522186;77;685;-64
2021/11/24 02:15:31;;;;;;;;;;;23.30;54.30;;;;;;1522991;78;726;-65
2021/11/24 02:17:33;;;;;;;;;;;23.30;54.40;;;;;;1521264;78;709;-64
2021/11/24 02:19:35;;;;;;;;;;;23.30;54.40;;;;;;1521886;77;1186;-63
2021/11/24 02:21:37;;;;;;;;;;;23.40;54.40;;;;;;1524753;77;737;-63
2021/11/24 02:23:39;;;;;;;;;;;23.30;54.50;;;;;;1522006;77;780;-62
2021/11/24 02:25:41;;;;;;;;;;;23.30;54.50;;;;;;1512640;77;668;-62
2021/11/24 02:27:43;;;;;;;;;;;23.30;54.50;;;;;;1524803;78;772;-64
2021/11/24 02:29:45;;;;;;;;;;;23.30;54.50;;;;;;1522188;77;1956;-64
2021/11/24 02:31:48;;;;;;;;;;;23.30;54.50;;;;;;1512831;78;760;-63
2021/11/24 02:33:54;;;;;;;;;;;23.30;54.40;;;;;;1515112;77;1096;-65
2021/11/24 02:35:56;;;;;;;;;;;23.30;54.50;;;;;;1526521;77;803;-65
2021/11/24 02:38:01;;;;;;;;;;;23.20;54.50;;;;;;1521429;78;809;-64
2021/11/24 02:40:02;;;;;;;;;;;23.30;54.60;;;;;;1525218;77;1651;-64
2021/11/24 02:42:04;;;;;;;;;;;23.30;54.50;;;;;;1523021;78;721;-63
2021/11/24 02:44:19;;;;;;;;;;;23.20;54.40;;;;;;1522145;77;717;-62
2021/11/24 02:46:21;;;;;;;;;;;23.30;54.50;;;;;;1522461;78;762;-63
2021/11/24 02:48:26;;;;;;;;;;;23.20;54.50;;;;;;1524453;77;1171;-60
2021/11/24 02:50:26;;;;;;;;;;;23.30;54.60;;;;;;1523813;77;1941;-64
2021/11/24 02:52:28;;;;;;;;;;;23.30;54.60;;;;;;1534522;76;712;-64
2021/11/24 02:54:30;;;;;;;;;;;23.30;54.60;;;;;;1518412;77;787;-64
2021/11/24 02:56:32;;;;;;;;;;;23.30;54.60;;;;;;1516519;77;760;-64
2021/11/24 02:58:34;;;;;;;;;;;23.30;54.50;;;;;;1516590;77;782;-66
2021/11/24 03:00:36;;;;;;;;;;;23.30;54.50;;;;;;1522616;77;1117;-64
2021/11/24 03:02:38;;;;;;;;;;;23.30;54.50;;;;;;1523932;78;771;-64
2021/11/24 03:04:39;;;;;;;;;;;23.30;54.60;;;;;;1522182;77;803;-63
2021/11/24 03:06:41;;;;;;;;;;;23.30;54.60;;;;;;1486397;79;796;-65
2021/11/24 03:08:43;;;;;;;;;;;23.30;54.60;;;;;;1522266;78;926;-64
2021/11/24 03:10:45;;;;;;;;;;;23.30;54.70;;;;;;1516163;77;1936;-64
2021/11/24 03:12:47;;;;;;;;;;;23.30;54.70;;;;;;1515584;78;743;-63
2021/11/24 03:14:49;;;;;;;;;;;23.30;54.70;;;;;;1517572;78;715;-63
2021/11/24 03:16:51;;;;;;;;;;;23.20;54.70;;;;;;1532056;76;760;-64
2021/11/24 03:18:53;;;;;;;;;;;23.30;54.70;;;;;;1523591;77;1143;-63
2021/11/24 03:20:55;;;;;;;;;;;23.30;54.80;;;;;;1524045;78;761;-60
2021/11/24 03:22:57;;;;;;;;;;;23.30;54.80;;;;;;1508588;77;730;-63
2021/11/24 03:24:59;;;;;;;;;;;23.30;54.70;;;;;;1521724;77;745;-62
2021/11/24 03:27:01;;;;;;;;;;;23.20;54.70;;;;;;1522109;78;670;-65
2021/11/24 03:29:03;;;;;;;;;;;23.30;54.80;;;;;;1522751;78;1139;-63
2021/11/24 03:31:04;;;;;;;;;;;23.30;54.90;;;;;;1525009;78;1948;-63
2021/11/24 03:33:06;;;;;;;;;;;23.40;54.80;;;;;;1513097;77;681;-62
2021/11/24 03:35:08;;;;;;;;;;;23.30;54.80;;;;;;1524111;78;731;-62
2021/11/24 03:37:10;;;;;;;;;;;23.30;54.70;;;;;;1522162;77;791;-66
2021/11/24 03:39:12;;;;;;;;;;;23.30;54.80;;;;;;1522766;78;1182;-64
2021/11/24 03:41:14;;;;;;;;;;;23.30;54.80;;;;;;1522476;78;752;-63
2021/11/24 03:43:16;;;;;;;;;;;23.30;54.80;;;;;;1537382;76;797;-61
2021/11/24 03:45:19;;;;;;;;;;;23.30;54.70;;;;;;1534929;77;727;-63
2021/11/24 03:47:21;;;;;;;;;;;23.30;54.70;;;;;;1537017;76;737;-63
2021/11/24 03:49:23;;;;;;;;;;;23.30;54.60;;;;;;1536322;76;1082;-65
2021/11/24 03:51:25;;;;;;;;;;;23.30;54.60;;;;;;1540516;77;1939;-62
2021/11/24 03:53:27;;;;;;;;;;;23.30;54.50;;;;;;1537300;77;771;-65
2021/11/24 03:55:29;;;;;;;;;;;23.30;54.50;;;;;;1542602;75;687;-64
2021/11/24 03:57:30;;;;;;;;;;;23.30;54.40;;;;;;1547805;75;702;-64
2021/11/24 04:01:33;;;;;;;;;;;23.40;54.20;;;;;;1530239;76;687;-68
2021/11/24 04:03:35;;;;;;;;;;;23.40;54.20;;;;;;1498529;77;795;-69
2021/11/24 04:05:37;;;;;;;;;;;23.50;54.30;;;;;;1544900;76;680;-69
2021/11/24 04:07:39;;;;;;;;;;;23.50;54.20;;;;;;1531590;77;766;-69
2021/11/24 04:09:41;;;;;;;;;;;23.40;54.10;;;;;;1547659;76;1224;-70
2021/11/24 04:11:43;;;;;;;;;;;23.50;54.20;;;;;;1557307;76;1948;-72
2021/11/24 04:13:44;;;;;;;;;;;23.50;54.30;;;;;;1528780;76;710;-70
2021/11/24 04:15:46;;;;;;;;;;;23.40;54.10;;;;;;1557957;76;758;-70
2021/11/24 04:17:48;;;;;;;;;;;23.50;54.30;;;;;;1520938;76;773;-69
2021/11/24 04:19:50;;;;;;;;;;;23.50;54.20;;;;;;1569596;75;1140;-69
2021/11/24 04:21:52;;;;;;;;;;;23.50;54.20;;;;;;1567425;75;745;-64
2021/11/24 04:23:54;;;;;;;;;;;23.50;54.10;;;;;;1559334;75;674;-68
2021/11/24 04:25:56;;;;;;;;;;;23.50;54.00;;;;;;1575512;75;657;-69
2021/11/24 04:27:58;;;;;;;;;;;23.60;53.90;;;;;;1555434;75;819;-69
2021/11/24 04:29:59;;;;;;;;;;;23.60;53.90;;;;;;1563413;75;1129;-68
2021/11/24 04:32:01;;;;;;;;;;;23.60;53.80;;;;;;1563376;75;1949;-68
2021/11/24 04:34:03;;;;;;;;;;;23.60;53.70;;;;;;1561205;75;790;-68
2021/11/24 04:36:05;;;;;;;;;;;23.60;53.70;;;;;;1575704;75;731;-69
2021/11/24 04:38:07;;;;;;;;;;;23.60;53.60;;;;;;1552410;75;779;-69
2021/11/24 04:40:09;;;;;;;;;;;23.60;53.60;;;;;;1551633;75;1213;-69
2021/11/24 04:42:11;;;;;;;;;;;23.60;53.40;;;;;;1573135;75;714;-69
2021/11/24 04:44:13;;;;;;;;;;;23.70;53.50;;;;;;1563102;75;957;-69
2021/11/24 04:46:17;;;;;;;;;;;23.60;53.30;;;;;;1562421;75;705;-68
2021/11/24 04:48:18;;;;;;;;;;;23.60;53.30;;;;;;1562671;75;761;-69
2021/11/24 04:50:20;;;;;;;;;;;23.60;53.10;;;;;;1561271;75;1940;-69
2021/11/24 04:52:22;;;;;;;;;;;23.70;53.20;;;;;;1564209;75;798;-68
2021/11/24 04:54:24;;;;;;;;;;;23.60;53.00;;;;;;1564868;75;746;-70
2021/11/24 04:56:26;;;;;;;;;;;23.60;52.90;;;;;;1556468;75;772;-69
2021/11/24 04:58:28;;;;;;;;;;;23.60;53.00;;;;;;1560861;75;680;-69
2021/11/24 05:00:30;;;;;;;;;;;23.60;52.90;;;;;;1560248;75;1190;-70
2021/11/24 05:02:32;;;;;;;;;;;23.70;53.10;;;;;;1567215;75;712;-71
2021/11/24 05:04:33;;;;;;;;;;;23.60;53.00;;;;;;1564844;75;790;-69
2021/11/24 05:06:35;;;;;;;;;;;23.60;53.00;;;;;;1549932;75;790;-69
2021/11/24 05:08:39;;;;;;;;;;;23.60;52.90;;;;;;1552828;75;748;-69
2021/11/24 05:10:41;;;;;;;;;;;23.60;52.90;;;;;;1568076;75;1938;-68
2021/11/24 05:12:43;;;;;;;;;;;23.60;53.00;;;;;;1575371;75;655;-69
2021/11/24 05:14:47;;;;;;;;;;;23.60;53.00;;;;;;1564845;75;702;-69
2021/11/24 05:16:49;;;;;;;;;;;23.60;52.90;;;;;;1561494;75;1641;-69
2021/11/24 05:18:52;;;;;;;;;;;23.60;52.90;;;;;;1561608;75;837;-70
2021/11/24 05:21:01;;;;;;;;;;;23.60;52.80;;;;;;1563441;75;1142;-69
2021/11/24 05:23:03;;;;;;;;;;;23.60;52.80;;;;;;1574260;75;1733;-69
2021/11/24 05:25:01;;;;;;;;;;;23.60;52.80;;;;;;1556073;75;1479;-70
2021/11/24 05:27:03;;;;;;;;;;;23.60;52.80;;;;;;1573590;75;792;-68
2021/11/24 05:29:05;;;;;;;;;;;23.60;52.80;;;;;;1563207;75;729;-68
2021/11/24 05:31:07;;;;;;;;;;;23.60;52.80;;;;;;1551649;75;1951;-69
2021/11/24 05:33:09;;;;;;;;;;;23.60;52.80;;;;;;1573025;75;781;-65
2021/11/24 05:35:11;;;;;;;;;;;23.60;52.80;;;;;;1564475;75;726;-69
2021/11/24 05:37:12;;;;;;;;;;;23.60;52.80;;;;;;1575520;75;776;-68
2021/11/24 05:39:14;;;;;;;;;;;23.60;52.70;;;;;;1563536;75;734;-68
2021/11/24 05:41:16;;;;;;;;;;;23.60;52.80;;;;;;1551609;75;1082;-68
2021/11/24 05:43:25;;;;;;;;;;;23.60;52.80;;;;;;1574787;75;803;-70
2021/11/24 05:45:39;;;;;;;;;;;23.70;52.90;;;;;;1572992;75;1734;-68
2021/11/24 05:47:53;;;;;;;;;;;23.70;52.80;;;;;;1563631;75;1741;-69
2021/11/24 05:49:52;;;;;;;;;;;23.70;52.80;;;;;;1539353;76;1595;-69
2021/11/24 05:51:55;;;;;;;;;;;23.70;52.80;;;;;;1554318;75;1952;-69
2021/11/24 05:53:57;;;;;;;;;;;23.60;52.70;;;;;;1563057;75;622;-68
2021/11/24 05:55:58;;;;;;;;;;;23.80;52.80;;;;;;1565636;75;822;-69
2021/11/24 05:58:00;;;;;;;;;;;23.70;52.70;;;;;;1569591;75;698;-69
2021/11/24 06:00:03;;;;;;;;;;;23.70;52.70;;;;;;1580474;75;1187;-69
2021/11/24 06:02:05;;;;;;;;;;;23.70;52.80;;;;;;1569027;75;780;-69
2021/11/24 06:04:07;;;;;;;;;;;23.70;52.80;;;;;;1570106;75;725;-69
2021/11/24 06:06:09;;;;;;;;;;;23.60;52.70;;;;;;1570036;75;710;-68
2021/11/24 06:08:11;;;;;;;;;;;23.70;52.80;;;;;;1569747;75;779;-69
2021/11/24 06:10:12;;;;;;;;;;;23.60;52.60;;;;;;1583070;75;1264;-72
2021/11/24 06:12:14;;;;;;;;;;;23.60;52.70;;;;;;1569229;75;1955;-69
2021/11/24 06:14:16;;;;;;;;;;;23.70;52.80;;;;;;1570810;75;794;-66
2021/11/24 06:16:18;;;;;;;;;;;23.60;52.60;;;;;;1570039;75;742;-69
2021/11/24 06:18:20;;;;;;;;;;;23.60;52.60;;;;;;1582490;75;822;-73
2021/11/24 06:20:22;;;;;;;;;;;23.60;52.60;;;;;;1569332;75;1133;-69
2021/11/24 06:22:24;;;;;;;;;;;23.60;52.60;;;;;;1565532;75;793;-69
2021/11/24 06:24:26;;;;;;;;;;;23.60;52.60;;;;;;1577842;75;744;-69
2021/11/24 06:26:28;;;;;;;;;;;23.70;52.70;;;;;;1558653;75;761;-68
2021/11/24 06:28:30;;;;;;;;;;;23.70;52.60;;;;;;1570085;75;683;-69
2021/11/24 06:30:32;;;;;;;;;;;23.70;52.60;;;;;;1569774;75;1159;-70
2021/11/24 06:32:34;;;;;;;;;;;23.70;52.60;;;;;;1568383;75;1946;-73
2021/11/24 06:34:36;;;;;;;;;;;23.60;52.70;;;;;;1571218;75;753;-74
2021/11/24 06:36:37;;;;;;;;;;;23.70;52.80;;;;;;1564656;75;772;-74
2021/11/24 06:38:39;;;;;;;;;;;23.70;52.90;;;;;;1571412;75;757;-69
2021/11/24 06:40:41;;;;;;;;;;;23.60;52.80;;;;;;1557723;75;1282;-70
2021/11/24 06:42:44;;;;;;;;;;;23.60;52.80;;;;;;1565187;75;734;-69
2021/11/24 06:44:46;;;;;;;;;;;23.70;52.90;;;;;;1563444;75;691;-69
2021/11/24 06:46:48;;;;;;;;;;;23.70;52.60;;;;;;1576215;75;804;-70
2021/11/24 06:48:49;;;;;;;;;;;23.70;52.60;;;;;;1562803;75;728;-70
2021/11/24 06:50:51;;;;;;;;;;;23.70;52.40;;;;;;1564755;75;1249;-69
2021/11/24 06:52:53;;;;;;;;;;;23.80;52.30;;;;;;1560482;75;1946;-68
2021/11/24 06:54:55;;;;;;;;;;;23.70;52.20;;;;;;1560537;75;771;-69
2021/11/24 06:56:57;;;;;;;;;;;23.70;52.10;;;;;;1564242;75;765;-69
2021/11/24 06:58:59;;;;;;;;;;;23.60;51.90;;;;;;1567642;75;764;-66
2021/11/24 07:01:02;;;;;;;;;;;23.60;51.90;;;;;;1558785;75;1167;-69
2021/11/24 07:03:04;;;;;;;;;;;23.60;51.90;;;;;;1560587;75;788;-70
2021/11/24 07:05:06;;;;;;;;;;;23.60;51.80;;;;;;1569280;75;681;-69
2021/11/24 07:07:08;;;;;;;;;;;23.60;51.80;;;;;;1566716;75;788;-69
2021/11/24 07:09:10;;;;;;;;;;;23.60;51.90;;;;;;1564828;75;730;-70
2021/11/24 07:11:12;;;;;;;;;;;23.60;51.90;;;;;;1571453;75;1935;-69
2021/11/24 07:13:14;;;;;;;;;;;23.50;51.90;;;;;;1576787;75;693;-69
2021/11/24 07:15:16;;;;;;;;;;;23.60;51.90;;;;;;1577243;75;830;-69
2021/11/24 07:17:18;;;;;;;;;;;23.50;51.90;;;;;;1567784;75;719;-69
2021/11/24 07:19:21;;;;;;;;;;;23.50;51.80;;;;;;1569892;75;801;-70
2021/11/24 07:21:23;;;;;;;;;;;23.60;51.70;;;;;;1581923;75;784;-69
2021/11/24 07:23:25;;;;;;;;;;;23.60;51.80;;;;;;1583346;75;741;-67
2021/11/24 07:25:29;;;;;;;;;;;23.50;51.90;;;;;;1580206;75;757;-70
2021/11/24 07:27:31;;;;;;;;;;;23.50;52.00;;;;;;1578861;75;696;-70
2021/11/24 07:29:33;;;;;;;;;;;23.50;51.70;;;;;;1578045;75;1132;-70
2021/11/24 07:31:34;;;;;;;;;;;23.60;51.90;;;;;;1565723;75;1935;-69
2021/11/24 07:33:36;;;;;;;;;;;23.60;51.80;;;;;;1566039;75;718;-68
2021/11/24 07:35:38;;;;;;;;;;;23.60;51.60;;;;;;1570207;75;695;-68
2021/11/24 07:37:40;;;;;;;;;;;23.60;51.50;;;;;;1563052;75;762;-70
2021/11/24 07:39:42;;;;;;;;;;;23.60;51.70;;;;;;1582922;75;1146;-69
2021/11/24 07:41:44;;;;;;;;;;;23.60;51.60;;;;;;1583322;75;660;-70
2021/11/24 07:43:46;;;;;;;;;;;23.70;51.80;;;;;;1582677;75;795;-70
2021/11/24 07:45:48;;;;;;;;;;;23.60;51.60;;;;;;1578916;75;791;-68
2021/11/24 07:47:49;;;;;;;;;;;23.60;51.60;;;;;;1583128;75;718;-68
2021/11/24 07:49:51;;;;;;;;;;;23.60;51.60;;;;;;1583276;75;1208;-70
2021/11/24 07:51:53;;;;;;;;;;;23.60;51.60;;;;;;1582780;75;1924;-70
2021/11/24 07:53:55;;;;;;;;;;;23.60;51.80;;;;;;1583044;75;726;-70
2021/11/24 07:55:57;;;;;;;;;;;23.60;51.80;;;;;;1583073;75;746;-70
2021/11/24 07:57:59;;;;;;;;;;;23.60;51.70;;;;;;1583170;75;711;-70
2021/11/24 08:00:01;;;;;;;;;;;23.60;51.70;;;;;;1582876;75;1202;-71
2021/11/24 08:02:03;;;;;;;;;;;23.60;51.80;;;;;;1576792;75;789;-69
2021/11/24 08:04:05;;;;;;;;;;;23.60;51.80;;;;;;1560538;75;705;-72
2021/11/24 08:06:07;;;;;;;;;;;23.60;51.80;;;;;;1560941;75;662;-70
2021/11/24 08:08:09;;;;;;;;;;;23.70;51.80;;;;;;1564985;75;707;-69
2021/11/24 08:10:11;;;;;;;;;;;23.60;50.90;;;;;;1562709;75;1155;-69
2021/11/24 08:12:13;;;;;;;;;;;23.50;50.10;;;;;;1562640;75;1923;-69
2021/11/24 08:14:15;;;;;;;;;;;23.60;50.00;;;;;;1557448;75;729;-70
2021/11/24 08:16:17;;;;;;;;;;;23.60;49.40;;;;;;1557120;75;727;-69
2021/11/24 08:18:19;;;;;;;;;;;23.50;48.70;;;;;;1564984;75;706;-69
2021/11/24 08:20:21;;;;;;;;;;;23.50;48.70;;;;;;1567413;75;1144;-66
2021/11/24 08:22:24;;;;;;;;;;;23.50;48.90;;;;;;1564605;75;769;-70
2021/11/24 08:24:27;;;;;;;;;;;23.50;49.00;;;;;;1573708;75;679;-69
2021/11/24 08:26:29;;;;;;;;;;;23.50;48.60;;;;;;1574506;75;703;-70
2021/11/24 08:28:31;;;;;;;;;;;23.40;48.10;;;;;;1572462;75;771;-70
2021/11/24 08:30:33;;;;;;;;;;;23.40;48.30;;;;;;1578068;74;1149;-72
2021/11/24 08:32:35;;;;;;;;;;;23.30;48.50;;;;;;1568482;74;1943;-73
2021/11/24 08:34:37;;;;;;;;;;;23.30;48.40;;;;;;1564757;74;708;-73
2021/11/24 08:36:39;;;;;;;;;;;23.30;48.40;;;;;;1567886;74;631;-73
2021/11/24 08:38:41;;;;;;;;;;;23.30;48.50;;;;;;1565298;74;787;-67
2021/11/24 08:40:43;;;;;;;;;;;23.40;48.10;;;;;;1565943;74;1181;-68
2021/11/24 08:42:45;;;;;;;;;;;23.40;48.30;;;;;;1563779;74;746;-69
2021/11/24 08:44:47;;;;;;;;;;;23.30;48.40;;;;;;1567418;75;783;-66
2021/11/24 08:46:49;;;;;;;;;;;23.30;48.50;;;;;;1565575;75;719;-67
2021/11/24 08:48:51;;;;;;;;;;;23.40;48.50;;;;;;1564288;74;717;-67
2021/11/24 08:50:53;;;;;;;;;;;23.30;48.70;;;;;;1569666;75;1138;-67
2021/11/24 08:52:54;;;;;;;;;;;23.40;48.70;;;;;;1569667;74;1959;-68
2021/11/24 08:54:56;;;;;;;;;;;23.30;48.80;;;;;;1574675;74;901;-66
2021/11/24 08:56:58;;;;;;;;;;;23.30;48.80;;;;;;1574140;74;695;-68
2021/11/24 08:59:02;;;;;;;;;;;23.30;48.80;;;;;;1571922;74;742;-69
2021/11/24 09:01:03;;;;;;;;;;;23.30;48.80;;;;;;1572083;74;1178;-68
2021/11/24 09:03:06;;;;;;;;;;;23.30;48.90;;;;;;1576418;74;811;-69
2021/11/24 09:05:08;;;;;;;;;;;23.30;48.90;;;;;;1570900;74;707;-68
2021/11/24 09:07:10;;;;;;;;;;;23.40;48.90;;;;;;1575634;74;743;-69
2021/11/24 09:09:12;;;;;;;;;;;23.40;48.90;;;;;;1559347;74;727;-68
2021/11/24 09:11:13;;;;;;;;;;;23.30;48.90;;;;;;1563997;74;1137;-70
2021/11/24 09:13:15;;;;;;;;;;;23.40;49.00;;;;;;1570431;74;1945;-65
2021/11/24 09:15:17;;;;;;;;;;;23.30;48.90;;;;;;1563040;74;843;-69
2021/11/24 09:17:21;;;;;;;;;;;23.40;49.00;;;;;;1566475;74;716;-68
2021/11/24 09:19:22;;;;;;;;;;;23.40;49.00;;;;;;1572504;74;1098;-68
2021/11/24 09:21:24;;;;;;;;;;;23.30;49.00;;;;;;1568104;74;706;-68
2021/11/24 09:23:28;;;;;;;;;;;23.40;49.00;;;;;;1561712;74;780;-68
2021/11/24 09:25:38;;;;;;;;;;;23.40;49.00;;;;;;1573342;74;725;-68
2021/11/24 09:27:56;;;;;;;;;;;23.40;49.10;;;;;;1567362;75;1540;-68
2021/11/24 09:29:52;;;;;;;;;;;23.40;49.10;;;;;;1571890;74;1696;-68
2021/11/24 09:31:54;;;;;;;;;;;23.40;49.10;;;;;;1557083;75;708;-67
2021/11/24 09:33:58;;;;;;;;;;;23.40;49.10;;;;;;1577605;74;1941;-68
2021/11/24 09:35:59;;;;;;;;;;;23.40;49.20;;;;;;1588048;74;1248;-67
2021/11/24 09:38:01;;;;;;;;;;;23.40;49.20;;;;;;1558686;74;728;-65
2021/11/24 09:40:05;;;;;;;;;;;23.40;49.20;;;;;;1556848;74;1202;-69
2021/11/24 09:42:07;;;;;;;;;;;23.40;49.20;;;;;;1577369;74;780;-69
2021/11/24 09:44:08;;;;;;;;;;;23.40;49.10;;;;;;1576054;74;802;-68
2021/11/24 09:46:10;;;;;;;;;;;23.40;49.10;;;;;;1565032;74;812;-67
2021/11/24 09:48:14;;;;;;;;;;;23.50;49.30;;;;;;1566608;74;819;-67
2021/11/24 09:50:22;;;;;;;;;;;23.50;49.20;;;;;;1569396;75;1884;-66
2021/11/24 09:52:20;;;;;;;;;;;23.50;49.20;;;;;;1570520;74;1922;-67
2021/11/24 09:54:21;;;;;;;;;;;23.50;49.20;;;;;;1580793;74;742;-69
2021/11/24 09:56:23;;;;;;;;;;;23.40;49.20;;;;;;1569511;74;812;-67
2021/11/24 09:58:25;;;;;;;;;;;23.50;49.40;;;;;;1579218;74;680;-68
2021/11/24 10:00:27;;;;;;;;;;;23.50;49.30;;;;;;1574146;73;221155;-59
2021/11/24 10:02:29;;;;;;;;;;;23.50;49.40;;;;;;1556418;75;797;-60
2021/11/24 10:04:31;;;;;;;;;;;23.50;49.40;;;;;;1549404;75;718;-61
2021/11/24 10:06:34;;;;;;;;;;;23.50;49.30;;;;;;1549311;75;1202;-60
2021/11/24 10:08:36;;;;;;;;;;;23.50;49.30;;;;;;1558088;75;654;-60
2021/11/24 10:10:38;;;;;;;;;;;23.40;49.20;;;;;;1560155;75;992;-60
2021/11/24 10:12:39;;;;;;;;;;;23.50;49.30;;;;;;1560130;75;1919;-60
2021/11/24 10:14:42;;;;;;;;;;;23.50;49.30;;;;;;1558077;75;899;-60
2021/11/24 10:16:46;;;;;;;;;;;23.50;49.20;;;;;;1566522;73;1116;-61
2021/11/24 10:18:49;;;;;;;;;;;23.50;49.20;;;;;;1561567;75;987;-60
2021/11/24 10:20:52;;;;;;;;;;;23.50;49.20;;;;;;1553311;74;2037;-59
2021/11/24 10:22:54;;;;;;;;;;;23.40;49.10;;;;;;1560640;75;1104;-59
2021/11/24 10:25:09;;;;;;;;;;;23.40;49.20;;;;;;1563963;74;729;-58
2021/11/24 10:27:12;;;;;;;;;;;23.50;49.20;;;;;;1564464;73;1122;-59
2021/11/24 10:29:15;;;;;;;;;;;23.50;49.20;;;;;;1557919;75;696;-60
2021/11/24 10:31:24;;;;;;;;;;;23.50;49.20;;;;;;1558464;75;746;-60
2021/11/24 10:33:29;;;;;;;;;;;23.50;49.20;;;;;;1492681;75;1959;-59
2021/11/24 10:35:30;;;;;;;;;;;23.40;49.20;;;;;;1561891;75;1664;-60
2021/11/24 10:37:32;;;;;;;;;;;23.50;49.30;;;;;;1561668;75;761;-59
2021/11/24 10:39:38;;;;;;;;;;;23.50;49.30;;;;;;1562509;75;807;-60
2021/11/24 10:41:40;;;;;;;;;;;23.50;49.30;;;;;;1558424;74;744;-60
2021/11/24 10:43:43;;;;;;;;;;;23.40;49.20;;;;;;1561359;74;704;-60
2021/11/24 10:45:54;;;;;;;;;;;23.50;49.20;;;;;;1560076;75;1182;-59
2021/11/24 10:47:59;;;;;;;;;;;23.50;49.30;;;;;;1564516;75;801;-61
2021/11/24 10:50:03;;;;;;;;;;;23.50;49.30;;;;;;1561233;75;655;-60
2021/11/24 10:52:15;;;;;;;;;;;23.40;49.20;;;;;;1557138;75;692;-60
2021/11/24 10:54:18;;;;;;;;;;;23.50;49.30;;;;;;1556889;75;1950;-59
2021/11/24 10:56:19;;;;;;;;;;;23.40;49.20;;;;;;1559777;75;1116;-60
2021/11/24 10:58:26;;;;;;;;;;;23.40;49.20;;;;;;1553682;75;779;-59
2021/11/24 11:00:41;;;;;;;;;;;23.40;49.20;;;;;;1554350;75;827;-59
2021/11/24 11:02:43;;;;;;;;;;;23.40;49.20;;;;;;1549068;75;684;-59
2021/11/24 11:04:54;;;;;;;;;;;23.40;49.20;;;;;;1550413;75;706;-58
2021/11/24 11:06:58;;;;;;;;;;;23.50;49.40;;;;;;1546580;75;1153;-59
2021/11/24 11:09:00;;;;;;;;;;;23.40;49.20;;;;;;1547503;75;1765;-60
2021/11/24 11:11:05;;;;;;;;;;;23.50;49.40;;;;;;1550702;75;799;-59
2021/11/24 11:13:12;;;;;;;;;;;23.50;49.40;;;;;;1551704;75;1912;-60
2021/11/24 11:15:15;;;;;;;;;;;23.40;49.20;;;;;;1549132;75;748;-60
2021/11/24 11:17:17;;;;;;;;;;;23.50;49.30;;;;;;1552483;75;1085;-60
2021/11/24 11:19:38;;;;;;;;;;;23.40;49.20;;;;;;1547656;75;779;-60
2021/11/24 11:21:40;;;;;;;;;;;23.40;49.20;;;;;;1550673;75;718;-60
2021/11/24 11:23:48;;;;;;;;;;;23.40;49.30;;;;;;1553516;75;782;-60
2021/11/24 11:25:53;;;;;;;;;;;23.40;49.20;;;;;;1546789;74;1694;-60
2021/11/24 11:27:55;;;;;;;;;;;23.40;49.30;;;;;;1548653;75;750;-60
2021/11/24 11:29:59;;;;;;;;;;;23.40;49.30;;;;;;1555458;75;760;-60
2021/11/24 11:32:01;;;;;;;;;;;23.40;49.30;;;;;;1550866;75;1685;-60
2021/11/24 11:34:03;;;;;;;;;;;23.40;49.30;;;;;;1552820;75;1931;-59
2021/11/24 11:36:09;;;;;;;;;;;23.40;49.20;;;;;;1550547;75;1140;-59
2021/11/24 11:38:11;;;;;;;;;;;23.50;49.30;;;;;;1559235;75;689;-60
2021/11/24 11:40:15;;;;;;;;;;;23.40;49.20;;;;;;1547513;75;738;-61
2021/11/24 11:42:17;;;;;;;;;;;23.40;49.10;;;;;;1551173;75;1616;-61
2021/11/24 11:44:19;;;;;;;;;;;23.50;49.20;;;;;;1539506;75;775;-60
2021/11/24 11:46:22;;;;;;;;;;;23.50;49.20;;;;;;1551590;75;1183;-61
2021/11/24 11:48:30;;;;;;;;;;;23.50;49.20;;;;;;1551251;75;770;-59
2021/11/24 11:50:40;;;;;;;;;;;23.50;49.20;;;;;;1543610;75;754;-59
2021/11/24 11:52:41;;;;;;;;;;;23.50;49.20;;;;;;1546987;75;737;-59
2021/11/24 11:54:43;;;;;;;;;;;23.50;49.20;;;;;;1549460;75;1931;-60
2021/11/24 11:56:46;;;;;;;;;;;23.50;49.30;;;;;;1553000;75;1164;-60
2021/11/24 11:58:56;;;;;;;;;;;23.50;49.20;;;;;;1548926;75;739;-59
2021/11/24 12:01:05;;;;;;;;;;;23.50;49.20;;;;;;1548715;75;809;-60
2021/11/24 12:03:06;;;;;;;;;;;23.40;49.10;;;;;;1550548;75;702;-59
2021/11/24 12:05:08;;;;;;;;;;;23.50;49.20;;;;;;1552062;75;708;-59
2021/11/24 12:07:11;;;;;;;;;;;23.50;49.20;;;;;;1550763;75;1111;-60
2021/11/24 12:09:14;;;;;;;;;;;23.50;49.20;;;;;;1548938;75;672;-59
2021/11/24 12:11:16;;;;;;;;;;;23.50;49.10;;;;;;1548184;75;768;-59
2021/11/24 12:13:18;;;;;;;;;;;23.50;49.20;;;;;;1547754;75;1939;-59